Pilot No. 4 — WDA5463 — position and weather

sailwx.info

Track history (hours):
 
Tides and Currents Weather Stations Pressure Air Temp Water Temp Dewpoint Dewpoint Depression Visibility Wind Speed Wind Dir Waves Ship Positions

Pilot No. 4

Owner: P E P Inc, FORT LAUDERDALE, FL. More information available from US FCC via Universal Licensing System and Coast Guard Vessel Documentation Center.

Last reported at 2016-Aug-25 09:23 UTC. Time now 2016-Aug-26 19:59 UTC.
Position N 26°06' W 080°07'.

MMSI: 495270931.

Date/timePositionNaut miles runAvg speedWind from/ knotsBaromVisibWave heightAir tempDewpointWater temp
2016-Aug-25 09:23N 26°06' W 080°07'1 1.5
2016-Aug-25 08:33N 26°05' W 080°07'4 1.1
2016-Aug-25 04:33N 26°06' W 080°02'4 3.5
2016-Aug-25 03:33N 26°06' W 080°06'1 0.8
2016-Aug-25 02:33N 26°05' W 080°07'1 1.1
2016-Aug-25 01:33N 26°06' W 080°07'1 0.7
2016-Aug-25 00:33N 26°06' W 080°07'2 1.8
2016-Aug-24 23:33N 26°05' W 080°05'2 2.3
2016-Aug-24 22:33N 26°06' W 080°07'3 3.3
2016-Aug-24 21:33N 26°05' W 080°04'3 3.3
2016-Aug-24 20:34N 26°06' W 080°07'1 0.3
2016-Aug-24 18:21N 26°06' W 080°07'1 1.3
2016-Aug-24 17:33N 26°05' W 080°07'1 1.0
2016-Aug-24 16:33N 26°06' W 080°07'0 0.1
2016-Aug-24 14:33N 26°06' W 080°07'1 0.9
2016-Aug-24 13:33N 26°05' W 080°07'1 1.1
2016-Aug-24 12:34N 26°06' W 080°06'2 1.7
2016-Aug-24 11:34N 26°05' W 080°04'2 0.2
2016-Aug-24 02:33N 26°04' W 080°03'4 4.4
2016-Aug-24 01:33N 26°06' W 080°07'0 0.0
2016-Aug-24 00:33N 26°06' W 080°07'1 0.1
2016-Aug-23 19:23N 26°06' W 080°07'1 1.3
2016-Aug-23 18:33N 26°05' W 080°07'1 1.1
2016-Aug-23 17:33N 26°06' W 080°07'1 0.6
2016-Aug-23 16:33N 26°06' W 080°07'1 0.9
2016-Aug-23 15:34N 26°06' W 080°06'1 0.4
2016-Aug-23 12:32N 26°06' W 080°07'3 0.2
2016-Aug-22 14:33N 26°06' W 080°04'3 3.4
2016-Aug-22 13:33N 26°06' W 080°07'1 0.6
2016-Aug-22 12:33N 26°06' W 080°07'0 0.1
2016-Aug-22 11:33N 26°06' W 080°07'4 0.2
2016-Aug-21 18:33N 26°07' W 080°03'4 4.1
2016-Aug-21 17:33N 26°06' W 080°07'4 4.5
2016-Aug-21 16:33N 26°06' W 080°02'4 4.5
2016-Aug-21 15:34N 26°06' W 080°07'0 0.0
2016-Aug-21 13:30N 26°06' W 080°07'1 0.5
2016-Aug-21 12:33N 26°06' W 080°07'1 0.5
2016-Aug-21 11:33N 26°05' W 080°07'2 0.1
2016-Aug-20 18:33N 26°06' W 080°04'3 2.7
2016-Aug-20 17:33N 26°06' W 080°07'1 0.6
2016-Aug-20 16:33N 26°06' W 080°07'1 0.8
2016-Aug-20 15:33N 26°06' W 080°06'1 1.0
2016-Aug-20 14:33N 26°06' W 080°07'1 0.6
2016-Aug-20 12:33N 26°04' W 080°07'3 0.3
2016-Aug-20 02:33N 26°06' W 080°04'3 2.5
2016-Aug-20 01:33N 26°06' W 080°07'0 0.4
2016-Aug-20 00:33N 26°05' W 080°07'0 0.3
2016-Aug-19 23:33N 26°05' W 080°07'0 0.2
2016-Aug-19 22:33N 26°06' W 080°07'0 0.1
2016-Aug-19 21:33N 26°06' W 080°07'0 0.2
2016-Aug-19 20:33N 26°06' W 080°07'0 0.4
2016-Aug-19 19:33N 26°06' W 080°07'1 0.1
2016-Aug-19 14:20N 26°06' W 080°07'2 2.6
2016-Aug-19 13:33N 26°05' W 080°05'2 1.8
2016-Aug-19 12:33N 26°04' W 080°07'1 0.8
2016-Aug-19 11:33N 26°05' W 080°07'1 0.1
2016-Aug-19 01:33N 26°06' W 080°07'0 0.1
2016-Aug-19 00:33N 26°06' W 080°07'0 0.1
2016-Aug-18 23:33N 26°06' W 080°07'1 0.6
2016-Aug-18 22:33N 26°05' W 080°07'1 0.8
2016-Aug-18 21:33N 26°06' W 080°06'1 1.0
2016-Aug-18 20:33N 26°06' W 080°07'0 0.1
2016-Aug-18 19:33N 26°06' W 080°07'1 0.6
2016-Aug-18 18:33N 26°06' W 080°07'1 0.9
2016-Aug-18 17:33N 26°05' W 080°07'1 0.5
2016-Aug-18 14:33N 26°06' W 080°06'0 0.2
2016-Aug-18 12:33N 26°06' W 080°05'2 1.8
2016-Aug-18 11:33N 26°05' W 080°07'1 0.1
2016-Aug-18 01:33N 26°06' W 080°07'0 0.1
2016-Aug-18 00:33N 26°06' W 080°07'2 1.8
2016-Aug-17 23:33N 26°04' W 080°07'4 3.6
2016-Aug-17 22:33N 26°06' W 080°03'3 3.3
2016-Aug-17 21:33N 26°06' W 080°07'1 1.1
2016-Aug-17 20:33N 26°04' W 080°07'1 1.2
2016-Aug-17 19:33N 26°06' W 080°07'0 0.3
2016-Aug-17 18:33N 26°05' W 080°07'1 0.4
2016-Aug-17 16:32N 26°06' W 080°07'1 0.8
2016-Aug-17 15:33N 26°06' W 080°07'1 0.8
2016-Aug-17 14:33N 26°06' W 080°07'2 1.9
2016-Aug-17 13:33N 26°04' W 080°07'2 1.5
2016-Aug-17 12:33N 26°06' W 080°06'1 0.7
2016-Aug-17 11:33N 26°05' W 080°07'0 0.3
2016-Aug-17 10:33N 26°05' W 080°07'1 0.7
2016-Aug-17 09:33N 26°05' W 080°07'0 0.3
2016-Aug-17 08:33N 26°04' W 080°07'1 0.1
2016-Aug-16 17:34N 26°06' W 080°07'0 0.2
2016-Aug-16 16:33N 26°05' W 080°07'1 0.2
2016-Aug-16 12:26N 26°06' W 080°07'0 0.0
2016-Aug-16 10:32N 26°06' W 080°07'2 1.8
2016-Aug-16 09:34N 26°04' W 080°07'4 0.8
2016-Aug-16 04:33N 26°07' W 080°03'4 4.1
2016-Aug-16 03:33N 26°05' W 080°07'1 0.0
2016-Aug-15 15:31N 26°06' W 080°07'3 3.3
2016-Aug-15 14:34N 26°06' W 080°04'3 3.1
2016-Aug-15 13:33N 26°06' W 080°07'1 1.4
2016-Aug-15 12:33N 26°04' W 080°07'4 2.0
2016-Aug-15 10:33N 26°05' W 080°03'5 4.5
2016-Aug-15 09:33N 26°06' W 080°07'  
Track history (hours):
 
Tides and Currents Weather Stations Pressure Air Temp Water Temp Dewpoint Dewpoint Depression Visibility Wind Speed Wind Dir Waves Ship Positions

Pilot No. 4

Owner: P E P Inc, FORT LAUDERDALE, FL. More information available from US FCC via Universal Licensing System and Coast Guard Vessel Documentation Center.

Last reported at 2016-Aug-25 09:23 UTC. Time now 2016-Aug-26 19:59 UTC.
Position N 26°06' W 080°07'.

MMSI: 495270931.

Date/timePositionNaut miles runAvg speedWind from/ knotsBaromVisibWave heightAir tempDewpointWater temp
2016-Aug-25 09:23N 26°06' W 080°07'1 1.5
2016-Aug-25 08:33N 26°05' W 080°07'4 1.1
2016-Aug-25 04:33N 26°06' W 080°02'4 3.5
2016-Aug-25 03:33N 26°06' W 080°06'1 0.8
2016-Aug-25 02:33N 26°05' W 080°07'1 1.1
2016-Aug-25 01:33N 26°06' W 080°07'1 0.7
2016-Aug-25 00:33N 26°06' W 080°07'2 1.8
2016-Aug-24 23:33N 26°05' W 080°05'2 2.3
2016-Aug-24 22:33N 26°06' W 080°07'3 3.3
2016-Aug-24 21:33N 26°05' W 080°04'3 3.3
2016-Aug-24 20:34N 26°06' W 080°07'1 0.3
2016-Aug-24 18:21N 26°06' W 080°07'1 1.3
2016-Aug-24 17:33N 26°05' W 080°07'1 1.0
2016-Aug-24 16:33N 26°06' W 080°07'0 0.1
2016-Aug-24 14:33N 26°06' W 080°07'1 0.9
2016-Aug-24 13:33N 26°05' W 080°07'1 1.1
2016-Aug-24 12:34N 26°06' W 080°06'2 1.7
2016-Aug-24 11:34N 26°05' W 080°04'2 0.2
2016-Aug-24 02:33N 26°04' W 080°03'4 4.4
2016-Aug-24 01:33N 26°06' W 080°07'0 0.0
2016-Aug-24 00:33N 26°06' W 080°07'1 0.1
2016-Aug-23 19:23N 26°06' W 080°07'1 1.3
2016-Aug-23 18:33N 26°05' W 080°07'1 1.1
2016-Aug-23 17:33N 26°06' W 080°07'1 0.6
2016-Aug-23 16:33N 26°06' W 080°07'1 0.9
2016-Aug-23 15:34N 26°06' W 080°06'1 0.4
2016-Aug-23 12:32N 26°06' W 080°07'3 0.2
2016-Aug-22 14:33N 26°06' W 080°04'3 3.4
2016-Aug-22 13:33N 26°06' W 080°07'1 0.6
2016-Aug-22 12:33N 26°06' W 080°07'0 0.1
2016-Aug-22 11:33N 26°06' W 080°07'4 0.2
2016-Aug-21 18:33N 26°07' W 080°03'4 4.1
2016-Aug-21 17:33N 26°06' W 080°07'4 4.5
2016-Aug-21 16:33N 26°06' W 080°02'4 4.5
2016-Aug-21 15:34N 26°06' W 080°07'0 0.0
2016-Aug-21 13:30N 26°06' W 080°07'1 0.5
2016-Aug-21 12:33N 26°06' W 080°07'1 0.5
2016-Aug-21 11:33N 26°05' W 080°07'2 0.1
2016-Aug-20 18:33N 26°06' W 080°04'3 2.7
2016-Aug-20 17:33N 26°06' W 080°07'1 0.6
2016-Aug-20 16:33N 26°06' W 080°07'1 0.8
2016-Aug-20 15:33N 26°06' W 080°06'1 1.0
2016-Aug-20 14:33N 26°06' W 080°07'1 0.6
2016-Aug-20 12:33N 26°04' W 080°07'3 0.3
2016-Aug-20 02:33N 26°06' W 080°04'3 2.5
2016-Aug-20 01:33N 26°06' W 080°07'0 0.4
2016-Aug-20 00:33N 26°05' W 080°07'0 0.3
2016-Aug-19 23:33N 26°05' W 080°07'0 0.2
2016-Aug-19 22:33N 26°06' W 080°07'0 0.1
2016-Aug-19 21:33N 26°06' W 080°07'0 0.2
2016-Aug-19 20:33N 26°06' W 080°07'0 0.4
2016-Aug-19 19:33N 26°06' W 080°07'1 0.1
2016-Aug-19 14:20N 26°06' W 080°07'2 2.6
2016-Aug-19 13:33N 26°05' W 080°05'2 1.8
2016-Aug-19 12:33N 26°04' W 080°07'1 0.8
2016-Aug-19 11:33N 26°05' W 080°07'1 0.1
2016-Aug-19 01:33N 26°06' W 080°07'0 0.1
2016-Aug-19 00:33N 26°06' W 080°07'0 0.1
2016-Aug-18 23:33N 26°06' W 080°07'1 0.6
2016-Aug-18 22:33N 26°05' W 080°07'1 0.8
2016-Aug-18 21:33N 26°06' W 080°06'1 1.0
2016-Aug-18 20:33N 26°06' W 080°07'0 0.1
2016-Aug-18 19:33N 26°06' W 080°07'1 0.6
2016-Aug-18 18:33N 26°06' W 080°07'1 0.9
2016-Aug-18 17:33N 26°05' W 080°07'1 0.5
2016-Aug-18 14:33N 26°06' W 080°06'0 0.2
2016-Aug-18 12:33N 26°06' W 080°05'2 1.8
2016-Aug-18 11:33N 26°05' W 080°07'1 0.1
2016-Aug-18 01:33N 26°06' W 080°07'0 0.1
2016-Aug-18 00:33N 26°06' W 080°07'2 1.8
2016-Aug-17 23:33N 26°04' W 080°07'4 3.6
2016-Aug-17 22:33N 26°06' W 080°03'3 3.3
2016-Aug-17 21:33N 26°06' W 080°07'1 1.1
2016-Aug-17 20:33N 26°04' W 080°07'1 1.2
2016-Aug-17 19:33N 26°06' W 080°07'0 0.3
2016-Aug-17 18:33N 26°05' W 080°07'1 0.4
2016-Aug-17 16:32N 26°06' W 080°07'1 0.8
2016-Aug-17 15:33N 26°06' W 080°07'1 0.8
2016-Aug-17 14:33N 26°06' W 080°07'2 1.9
2016-Aug-17 13:33N 26°04' W 080°07'2 1.5
2016-Aug-17 12:33N 26°06' W 080°06'1 0.7
2016-Aug-17 11:33N 26°05' W 080°07'0 0.3
2016-Aug-17 10:33N 26°05' W 080°07'1 0.7
2016-Aug-17 09:33N 26°05' W 080°07'0 0.3
2016-Aug-17 08:33N 26°04' W 080°07'1 0.1
2016-Aug-16 17:34N 26°06' W 080°07'0 0.2
2016-Aug-16 16:33N 26°05' W 080°07'1 0.2
2016-Aug-16 12:26N 26°06' W 080°07'0 0.0
2016-Aug-16 10:32N 26°06' W 080°07'2 1.8
2016-Aug-16 09:34N 26°04' W 080°07'4 0.8
2016-Aug-16 04:33N 26°07' W 080°03'4 4.1
2016-Aug-16 03:33N 26°05' W 080°07'1 0.0
2016-Aug-15 15:31N 26°06' W 080°07'3 3.3
2016-Aug-15 14:34N 26°06' W 080°04'3 3.1
2016-Aug-15 13:33N 26°06' W 080°07'1 1.4
2016-Aug-15 12:33N 26°04' W 080°07'4 2.0
2016-Aug-15 10:33N 26°05' W 080°03'5 4.5
2016-Aug-15 09:33N 26°06' W 080°07'  

Dump ship's entire track history